EPKKEPSY

Guest
Details From EPKK - BALICE
To EPSY - SZYMANY
Flight Number -
Tags generated
Created
Modified
Stats Distance 209 nm / 387 km
Max Altitude 27,500 ft / 8,382 m
Waypoints 4
Social Downloads 4
Likes 0
Share VATSIM

Download

Looking for another format? Having issues loading an existing format? Contact us
Advertisement - Login to hide

Notes

Basic altitude profile: - Ascent Rate: 700ft/min - Ascent Speed: 130kts - Cruise Altitude: 7000ft - Cruise Speed: 165kts - Descent Rate: 700ft/min - Descent Speed: 170kts Options: - Use NATs: yes - Use PACOTS: yes - Use low airways: yes - Use high airways: yes

Route

EPKK DEDOL UN744 KRN EPSY

ID Type Via Altitude Latitude Longitude Leg Dist Tot Dist Heading (true) Name
O EPKK APT - 0 ft / 0 m 50.07782˚ 19.78550˚ - 0 nm - BALICE
DEDOL FIX - 27,300 ft / 8,321 m 51.38778˚ 20.36000˚ 81 nm 81 nm 15° / 16° -
KRN VOR UN744 (AWY-HI) 27,500 ft / 8,382 m 51.94624˚ 20.44462˚ 33 nm 115 nm 5° / 5° KARNICE VOR-DME
O EPSY APT - 0 ft / 0 m 53.47973˚ 20.93650˚ 93 nm 209 nm 11° / 11° SZYMANY

Altitude Profile

Advertisement - Login to hide

Weather


0- 5 10 15 20 25 30 35+ Temperature / ° C

Clouds and Precipitation
Forecast for 2017-12-17 00:00 UTC. Updated an hour ago

Ground ~20,000 ft ~40,000 ft Winds

EPKK

Details ICAO EPKK (KRK)
Name BALICE
Region Poland
Timezone Europe/Warsaw (UTC+1.0)
Stats Elevation 791 ft / 241 m (AMSL)
Location 50.077821° 19.785503°
Runways 1
Magnetic Variation 5.203° E

METAR

EPKK 162230Z 16003KT 5000 BR FEW039 SCT046 BKN055 M00/M02 Q1011

Decode

TAF

TAF AMD EPKK 161901Z 1619/1718 23004KT 4000 BR BKN033 TEMPO 1619/1709 2000 -SN BR BKN008 BKN020 PROB40 1619/1707 1200 -SN BR BKN003 BKN008 TEMPO 1709/1715 8000 PROB40 1715/1718 2000 -SN BR BKN004 BKN008

Decode

Departure Runways

ID Width Length Bearing (true) Bearing (mag) Surface Threshold Offset Overrun Length
07 197 ft / 60 m 8,343 ft / 2,543 m 77.75° 72.55° Concrete 0 ft / 0 m 0 ft / 0 m
25 197 ft / 60 m 8,343 ft / 2,543 m 257.77° 252.57° Concrete 784 ft / 239 m 0 ft / 0 m

EPSY

Details ICAO EPSY
Name SZYMANY
Region Poland
Timezone Europe/Warsaw (UTC+1.0)
Stats Elevation 463 ft / 141 m (AMSL)
Location 53.479731° 20.936497°
Runways 1
Magnetic Variation 6.016° E

METAR

EPSY 162230Z 24003KT 4000 BR BKN008 00/M00 Q1008 R01/290295

Decode

TAF

Not found

Destination Runways

ID Width Length Bearing (true) Bearing (mag) Surface Threshold Offset Overrun Length
02 197 ft / 60 m 6,556 ft / 1,998 m 18.43° 12.41° Concrete 0 ft / 0 m 0 ft / 0 m
20 197 ft / 60 m 6,556 ft / 1,998 m 198.43° 192.41° Concrete 0 ft / 0 m 0 ft / 0 m

Approach Navaids

Runway Type Ident Frequency Range Bearing (true) Bearing (mag) Slope Elevation
02 Localiser SZN 110.10 MHz 18 nm / 33 km 18.44° 12.42° - 463 ft / 141 m (AMSL)
02 Glidescope SZN 110.10 MHz 10 nm / 19 km 18.43° 12.41° 3.00° 40 ft / 12 m (AMSL)
02 DME SZN 110.10 MHz 18 nm / 33 km - - - 492 ft / 150 m (AMSL)